Time;durP1;ratioP1;P1;durP2;ratioP2;P2;SDS_P1;SDS_P2;PMS_P1;PMS_P2;Temp;Humidity;BMP_temperature;BMP_pressure;BME280_temperature;BME280_humidity;BME280_pressure;Samples;Min_cycle;Max_cycle;Signal;HPM_P1;HPM_P2
2022/08/12 00:43:39;;;;;;;3.10;1.83;;;17.80;99.90;19.30;97079.00;;;;5042107;28;20227;-87
2022/08/12 00:46:41;;;;;;;3.67;1.80;;;17.80;99.90;19.30;97076.00;;;;5048061;28;20639;-88
2022/08/12 00:49:32;;;;;;;4.20;2.80;;;17.90;99.90;19.10;97070.00;;;;5045399;28;20204;-88
2022/08/12 00:52:22;;;;;;;2.27;2.07;;;17.80;99.90;19.10;97065.00;;;;5050976;28;20207;-88
2022/08/12 00:55:12;;;;;;;3.40;1.77;;;17.90;99.90;19.00;97055.00;;;;5054040;28;20223;-88
2022/08/12 00:58:05;;;;;;;2.40;2.20;;;17.80;99.90;18.80;97064.00;;;;5054829;28;20208;-87
2022/08/12 01:00:57;;;;;;;2.80;2.60;;;17.80;99.90;18.70;97058.00;;;;5053615;28;20217;-87
2022/08/12 01:13:16;;;;;;;2.03;1.90;;;17.90;99.90;19.00;97059.00;;;;5051507;28;20201;-88
2022/08/12 01:16:09;;;;;;;2.23;1.80;;;17.60;99.90;19.00;97053.00;;;;5050546;28;20586;-89
2022/08/12 01:18:59;;;;;;;2.97;2.33;;;17.60;99.90;18.80;97051.00;;;;5051966;28;20207;-87
2022/08/12 01:22:19;;;;;;;3.23;2.23;;;17.60;99.90;18.60;97048.00;;;;5042584;28;20251;-88
2022/08/12 01:25:11;;;;;;;2.20;2.00;;;17.60;99.90;18.30;97040.00;;;;5051320;28;20216;-87
2022/08/12 01:28:02;;;;;;;1.97;1.80;;;17.50;99.90;18.50;97039.00;;;;5054434;28;20223;-88
2022/08/12 01:30:52;;;;;;;3.00;1.90;;;17.40;99.90;18.40;97042.00;;;;5053979;28;20216;-88
2022/08/12 01:33:46;;;;;;;3.80;1.93;;;17.30;99.90;18.50;97045.00;;;;5052140;28;20220;-88
2022/08/12 01:36:42;;;;;;;2.10;1.97;;;17.30;99.90;18.60;97042.00;;;;5053215;28;20245;-88
2022/08/12 01:39:37;;;;;;;2.37;2.17;;;17.30;99.90;18.40;97036.00;;;;5045622;28;20201;-89
2022/08/12 01:42:32;;;;;;;4.37;1.90;;;17.30;99.90;18.10;97040.00;;;;5044592;28;20246;-88
2022/08/12 01:45:24;;;;;;;2.53;2.27;;;17.20;99.90;18.30;97045.00;;;;5045303;28;20204;-88
2022/08/12 01:48:24;;;;;;;2.27;2.07;;;17.20;99.90;18.00;97035.00;;;;5053803;28;20551;-86
2022/08/12 01:51:30;;;;;;;5.43;2.93;;;17.20;99.90;18.40;97032.00;;;;5052626;28;20197;-88
2022/08/12 01:54:19;;;;;;;2.30;2.10;;;17.10;99.90;18.40;97032.00;;;;5052900;28;20208;-87
2022/08/12 01:57:16;;;;;;;2.07;1.90;;;17.20;99.90;18.30;97033.00;;;;5042404;28;20228;-88
2022/08/12 02:00:12;;;;;;;2.43;2.23;;;17.20;99.90;18.10;97035.00;;;;5042374;28;20197;-87
2022/08/12 02:03:16;;;;;;;2.10;1.90;;;17.10;99.90;18.20;97029.00;;;;5047512;28;20197;-88
2022/08/12 02:13:06;;;;;;;2.17;1.97;;;17.00;99.90;18.00;97020.00;;;;5052444;28;20204;-87
2022/08/12 02:16:04;;;;;;;3.37;1.90;;;17.00;99.90;17.80;97012.00;;;;5050801;28;20231;-88
2022/08/12 02:19:09;;;;;;;2.40;1.77;;;16.90;99.90;18.00;97005.00;;;;5046551;28;20197;-88
2022/08/12 02:22:27;;;;;;;3.70;2.33;;;16.90;99.90;18.00;97002.00;;;;5037838;28;20217;-88
2022/08/12 02:25:23;;;;;;;4.43;2.47;;;16.70;99.90;17.90;97004.00;;;;5051367;28;20208;-87
2022/08/12 02:28:12;;;;;;;3.07;2.30;;;16.90;99.90;17.40;97001.00;;;;5051134;28;20212;-87
2022/08/12 02:31:07;;;;;;;3.17;2.30;;;16.80;99.90;17.60;97000.00;;;;5048669;28;20221;-88
2022/08/12 02:33:58;;;;;;;2.03;1.93;;;16.70;99.90;17.50;96989.00;;;;5041222;28;20648;-86
2022/08/12 02:36:48;;;;;;;2.03;1.83;;;16.60;99.90;17.70;96998.00;;;;5050735;28;20220;-88
2022/08/12 02:39:41;;;;;;;2.43;2.23;;;16.60;99.90;17.80;96999.00;;;;5052577;28;20205;-87
2022/08/12 02:42:34;;;;;;;3.97;2.60;;;16.60;99.90;17.80;96987.00;;;;5044778;28;20228;-88
2022/08/12 02:45:33;;;;;;;3.00;1.93;;;16.70;99.90;18.00;96996.00;;;;5051699;28;20244;-88
2022/08/12 02:48:31;;;;;;;2.20;1.93;;;16.40;99.90;18.20;96996.00;;;;5051737;28;20193;-88
2022/08/12 02:51:24;;;;;;;3.43;2.20;;;16.80;99.90;17.80;96998.00;;;;5047200;28;20216;-87
2022/08/12 02:54:14;;;;;;;3.43;2.43;;;16.80;99.90;17.40;96996.00;;;;5052250;28;20212;-86
2022/08/12 02:57:05;;;;;;;9.47;2.20;;;16.70;99.90;17.30;96990.00;;;;5052411;28;20492;-87
2022/08/12 02:59:54;;;;;;;3.23;1.77;;;16.60;99.90;17.40;96988.00;;;;5051776;28;20201;-87
2022/08/12 03:02:46;;;;;;;5.30;2.17;;;16.50;99.90;17.50;96992.00;;;;5048747;28;20228;-88
2022/08/12 03:05:49;;;;;;;5.27;2.47;;;16.50;99.90;17.70;97001.00;;;;5048106;28;20224;-87
2022/08/12 03:08:42;;;;;;;2.63;2.43;;;16.50;99.90;17.70;96996.00;;;;5048961;28;20208;-87
2022/08/12 03:11:39;;;;;;;3.07;2.00;;;16.50;99.90;17.50;97000.00;;;;5047255;28;20197;-87
2022/08/12 03:14:31;;;;;;;5.77;2.53;;;16.50;99.90;17.20;96991.00;;;;5046591;28;20283;-87
2022/08/12 03:17:28;;;;;;;2.50;2.30;;;16.50;99.90;17.50;97002.00;;;;5051041;28;20227;-88
2022/08/12 03:20:20;;;;;;;3.93;2.00;;;16.40;99.90;17.40;96990.00;;;;5047373;28;20664;-87
2022/08/12 03:23:15;;;;;;;3.13;2.00;;;16.40;99.90;17.60;97000.00;;;;5043824;28;20204;-87
2022/08/12 03:26:04;;;;;;;3.13;1.90;;;16.40;99.90;17.80;96999.00;;;;5042928;28;20693;-87
2022/08/12 03:28:55;;;;;;;4.80;2.53;;;16.40;99.90;17.70;97000.00;;;;5046065;28;20582;-87
2022/08/12 03:31:45;;;;;;;3.23;2.60;;;16.50;99.90;17.30;96993.00;;;;5056696;28;20219;-86
2022/08/12 03:34:36;;;;;;;3.27;2.83;;;16.50;99.90;17.10;96999.00;;;;5070198;28;20200;-86
2022/08/12 03:37:29;;;;;;;7.00;2.47;;;16.30;99.90;17.50;96999.00;;;;5072629;28;20228;-87
2022/08/12 04:02:17;;;;;;;3.37;2.57;;;16.10;99.90;17.00;96997.00;;;;5047907;28;20228;-86
2022/08/12 04:05:11;;;;;;;3.90;2.03;;;16.00;99.90;16.90;96992.00;;;;5047780;28;20201;-87
2022/08/12 04:08:00;;;;;;;5.30;4.10;;;16.00;99.90;16.60;97003.00;;;;5046215;28;20201;-87
2022/08/12 04:14:07;;;;;;;2.30;2.10;;;15.90;99.90;17.30;96985.00;;;;5051613;28;20231;-88
2022/08/12 04:16:57;;;;;;;2.20;2.00;;;16.00;99.90;16.90;96989.00;;;;5043613;28;20225;-85
2022/08/12 04:19:47;;;;;;;3.33;2.40;;;16.00;99.90;16.70;96992.00;;;;5052821;28;20205;-88
2022/08/12 04:22:36;;;;;;;2.73;2.53;;;15.90;99.90;16.60;96984.00;;;;5046110;28;20220;-88
2022/08/12 04:25:27;;;;;;;2.83;2.50;;;15.90;99.90;16.30;96993.00;;;;5049237;28;20208;-86
2022/08/12 04:28:15;;;;;;;6.90;3.20;;;15.80;99.90;16.30;96990.00;;;;5054585;28;20204;-88
2022/08/12 04:31:06;;;;;;;2.37;2.17;;;15.70;99.90;16.50;96984.00;;;;5058005;28;20216;-86
2022/08/12 04:33:56;;;;;;;2.43;2.17;;;15.70;99.90;16.40;96989.00;;;;5052617;28;20653;-86
2022/08/12 04:36:45;;;;;;;2.20;2.00;;;15.60;99.90;16.90;97005.00;;;;5052166;28;20235;-87
2022/08/12 04:39:34;;;;;;;2.85;2.40;;;15.70;99.90;17.10;97004.00;;;;5041388;28;20397;-87
2022/08/12 04:42:24;;;;;;;2.57;2.20;;;15.80;99.90;17.10;97003.00;;;;5054697;28;20224;-86
2022/08/12 04:45:13;;;;;;;2.97;2.13;;;15.90;99.90;16.90;96989.00;;;;5057305;28;20208;-86
2022/08/12 04:48:04;;;;;;;3.27;2.57;;;15.90;99.90;17.00;96997.00;;;;5055813;28;20689;-88
2022/08/12 04:50:53;;;;;;;3.40;2.50;;;16.00;99.90;16.90;96998.00;;;;5056095;28;20211;-88
2022/08/12 04:53:42;;;;;;;2.50;2.30;;;16.00;99.90;17.20;97007.00;;;;5044338;28;20215;-87
2022/08/12 04:56:32;;;;;;;7.27;3.20;;;16.00;99.90;17.40;97000.00;;;;5049808;28;20218;-87
2022/08/12 04:59:21;;;;;;;5.07;1.93;;;16.00;99.90;17.40;97007.00;;;;5054561;28;20192;-87
2022/08/12 05:02:09;;;;;;;3.55;2.88;;;16.10;99.90;17.10;97013.00;;;;5053933;28;20416;-88
2022/08/12 05:05:02;;;;;;;5.80;2.63;;;16.10;99.90;17.20;97005.00;;;;5044772;28;20197;-87
2022/08/12 05:07:52;;;;;;;2.33;2.00;;;16.10;99.90;16.90;97006.00;;;;5057376;28;20201;-88
2022/08/12 05:10:43;;;;;;;4.53;2.23;;;16.00;99.90;16.70;97014.00;;;;5052008;28;20204;-87
2022/08/12 05:13:40;;;;;;;3.27;2.40;;;16.00;99.90;16.70;97012.00;;;;5054631;28;20389;-87
2022/08/12 05:16:30;;;;;;;4.13;2.70;;;15.90;99.90;17.10;97018.00;;;;5049680;28;20221;-86
2022/08/12 05:19:20;;;;;;;2.70;2.50;;;16.00;99.90;17.40;97022.00;;;;5054664;28;20197;-87
2022/08/12 05:22:10;;;;;;;3.17;2.87;;;16.10;99.90;17.40;97016.00;;;;5053578;28;20224;-87
2022/08/12 05:24:59;;;;;;;3.00;2.17;;;16.20;99.90;17.60;97024.00;;;;5055574;28;20697;-86
2022/08/12 05:27:48;;;;;;;6.13;2.87;;;16.30;99.90;17.70;97028.00;;;;5049732;28;20200;-87
2022/08/12 05:30:37;;;;;;;4.73;2.67;;;16.40;99.90;17.80;97031.00;;;;5049988;28;20219;-86
2022/08/12 05:33:36;;;;;;;3.93;2.93;;;16.60;99.90;17.80;97043.00;;;;5051746;28;20863;-88
2022/08/12 05:36:25;;;;;;;3.07;2.67;;;16.60;99.90;18.10;97041.00;;;;5048312;28;20606;-87
2022/08/12 05:39:15;;;;;;;2.57;2.37;;;16.70;99.90;18.40;97042.00;;;;5053059;28;20677;-88
2022/08/12 05:42:04;;;;;;;3.63;2.50;;;16.80;99.90;18.50;97044.00;;;;5053706;28;20200;-87
2022/08/12 05:44:53;;;;;;;6.27;3.03;;;16.90;99.90;18.60;97044.00;;;;5052531;28;20213;-86
2022/08/12 05:47:41;;;;;;;2.83;2.63;;;17.00;99.90;18.40;97044.00;;;;5054580;28;20203;-88
2022/08/12 05:50:30;;;;;;;5.00;2.93;;;17.10;99.90;18.40;97051.00;;;;5051099;28;20200;-87
2022/08/12 05:53:19;;;;;;;4.17;2.30;;;17.10;99.90;18.00;97057.00;;;;5052709;28;20201;-87
2022/08/12 05:56:20;;;;;;;2.97;2.70;;;17.10;99.90;17.80;97042.00;;;;5052778;28;20221;-87
2022/08/12 05:59:10;;;;;;;4.53;2.70;;;17.00;99.90;17.90;97047.00;;;;5053300;28;20196;-86
2022/08/12 06:02:06;;;;;;;2.60;2.33;;;16.90;99.90;18.20;97038.00;;;;5052111;28;20213;-86
2022/08/12 06:04:59;;;;;;;3.53;2.40;;;17.00;99.90;18.40;97037.00;;;;5053705;28;20205;-87
2022/08/12 06:07:48;;;;;;;3.87;2.57;;;17.10;99.90;18.40;97036.00;;;;5054499;28;20230;-86
2022/08/12 06:10:37;;;;;;;5.83;3.53;;;17.20;99.90;18.90;97042.00;;;;5048414;28;20295;-87
2022/08/12 06:13:28;;;;;;;2.70;2.47;;;17.30;99.90;19.10;97038.00;;;;5051760;28;20204;-87
2022/08/12 06:16:19;;;;;;;7.00;3.00;;;17.50;99.90;19.40;97052.00;;;;5051473;28;20224;-87
2022/08/12 06:19:09;;;;;;;3.43;2.87;;;17.60;99.90;19.60;97056.00;;;;5051437;28;20205;-87
2022/08/12 06:21:58;;;;;;;6.23;3.50;;;17.80;99.90;19.90;97052.00;;;;5044927;28;20575;-87
2022/08/12 06:24:48;;;;;;;3.90;3.07;;;17.90;99.90;20.00;97057.00;;;;5051879;28;20580;-87
2022/08/12 06:27:45;;;;;;;5.17;3.30;;;18.10;99.90;20.00;97057.00;;;;5049640;28;20250;-87
2022/08/12 06:30:36;;;;;;;3.10;2.60;;;18.20;99.90;19.70;97053.00;;;;5052339;28;20571;-87
2022/08/12 06:33:25;;;;;;;4.37;3.17;;;18.40;99.90;19.60;97061.00;;;;5051946;28;20213;-87
2022/08/12 06:36:17;;;;;;;5.60;3.23;;;18.30;99.90;19.70;97052.00;;;;5048547;28;20622;-87
2022/08/12 06:39:06;;;;;;;5.87;2.87;;;18.40;99.90;20.10;97042.00;;;;5051730;28;20211;-87
2022/08/12 06:45:00;;;;;;;5.77;3.30;;;18.60;99.90;20.70;97042.00;;;;5047904;28;20219;-87
2022/08/12 06:47:52;;;;;;;6.43;3.07;;;18.80;99.90;21.10;97040.00;;;;5047753;28;20224;-87
2022/08/12 06:50:43;;;;;;;4.57;3.43;;;19.00;99.90;21.10;97044.00;;;;5077707;22;21938;-74
2022/08/12 06:53:32;;;;;;;5.17;2.80;;;19.20;99.90;21.00;97044.00;;;;5091129;28;20685;-76
2022/08/12 06:56:21;;;;;;;5.47;3.57;;;19.20;99.90;20.80;97040.00;;;;5088354;28;20212;-72
2022/08/12 06:59:14;;;;;;;8.13;2.93;;;19.30;99.90;20.80;97046.00;;;;5092636;28;20222;-74
2022/08/12 07:02:03;;;;;;;6.53;3.20;;;19.30;99.90;21.20;97039.00;;;;5092338;28;20569;-73
2022/08/12 07:04:53;;;;;;;4.30;2.10;;;19.40;99.90;21.80;97039.00;;;;5096746;28;20217;-73
2022/08/12 07:07:46;;;;;;;5.90;2.73;;;19.60;99.90;22.10;97038.00;;;;5107820;28;20750;-73
2022/08/12 07:10:41;;;;;;;6.07;3.00;;;19.90;99.90;22.50;97042.00;;;;5104182;28;20305;-74
2022/08/12 07:13:34;;;;;;;8.87;3.53;;;20.20;99.90;22.80;97036.00;;;;5108562;28;20237;-73
2022/08/12 07:16:25;;;;;;;3.60;2.60;;;20.50;99.90;22.90;97042.00;;;;5101343;28;20206;-72
2022/08/12 07:19:14;;;;;;;4.20;2.63;;;20.70;99.90;22.40;97035.00;;;;5102816;28;20210;-73
2022/08/12 07:22:05;;;;;;;5.87;2.87;;;20.90;98.10;23.20;97038.00;;;;5102219;28;20206;-73
2022/08/12 07:27:57;;;;;;;4.23;3.03;;;21.40;97.60;24.10;97037.00;;;;5100985;28;20202;-75
2022/08/12 07:30:48;;;;;;;2.97;1.80;;;21.70;97.30;24.60;97036.00;;;;5101791;28;20219;-74
2022/08/12 07:33:40;;;;;;;4.83;2.10;;;22.00;96.60;24.80;97033.00;;;;5102352;28;20225;-73
2022/08/12 07:36:29;;;;;;;3.70;1.73;;;22.40;95.20;25.00;97033.00;;;;5097680;28;20202;-73
2022/08/12 07:39:19;;;;;;;4.27;1.80;;;22.70;93.80;25.00;97023.00;;;;5101204;28;20221;-73
2022/08/12 07:42:09;;;;;;;2.33;2.13;;;22.90;92.50;24.60;97037.00;;;;5099417;28;20191;-74
2022/08/12 07:44:58;;;;;;;2.27;1.50;;;23.00;91.60;24.70;97043.00;;;;5102298;28;20254;-73
2022/08/12 07:47:50;;;;;;;2.60;1.40;;;23.00;90.30;24.60;97046.00;;;;5108240;28;20579;-73
2022/08/12 07:50:39;;;;;;;2.47;1.57;;;22.90;90.00;24.20;97046.00;;;;5096675;28;20237;-73
2022/08/12 07:53:27;;;;;;;2.92;1.88;;;22.90;88.60;23.80;97045.00;;;;5101806;28;20753;-73
2022/08/12 07:56:18;;;;;;;1.63;1.30;;;22.70;86.90;23.80;97040.00;;;;5103277;28;20218;-72
2022/08/12 07:59:09;;;;;;;2.17;1.27;;;22.60;88.80;24.40;97048.00;;;;5101788;28;20232;-73
2022/08/12 08:02:00;;;;;;;1.87;1.67;;;22.50;88.90;24.20;97044.00;;;;5102442;28;20236;-72
2022/08/12 08:04:59;;;;;;;1.40;1.30;;;22.60;87.60;23.40;97045.00;;;;5099150;28;20203;-73
2022/08/12 08:07:48;;;;;;;1.83;1.67;;;22.50;84.30;23.60;97048.00;;;;5104417;28;20194;-74
2022/08/12 08:10:37;;;;;;;1.83;1.40;;;22.40;85.20;23.50;97055.00;;;;5103440;28;20215;-72
2022/08/12 08:13:26;;;;;;;3.40;1.40;;;22.20;85.40;24.20;97047.00;;;;5106720;28;20229;-73
2022/08/12 08:16:15;;;;;;;2.13;1.57;;;22.30;86.00;23.70;97045.00;;;;5095845;28;20191;-72
2022/08/12 08:19:04;;;;;;;1.63;1.20;;;22.40;86.50;23.70;97040.00;;;;5100848;28;20844;-72
2022/08/12 08:21:54;;;;;;;1.77;1.50;;;22.40;84.70;23.90;97044.00;;;;5097578;28;20256;-74
2022/08/12 08:24:44;;;;;;;2.10;1.13;;;22.40;83.10;24.50;97044.00;;;;5097858;28;20809;-73
2022/08/12 08:27:45;;;;;;;3.73;1.40;;;22.60;86.30;24.60;97046.00;;;;5100412;28;20218;-74
2022/08/12 08:30:41;;;;;;;0.90;0.90;;;22.70;86.80;24.00;97028.00;;;;5104573;28;20222;-74
2022/08/12 08:33:31;;;;;;;1.33;1.23;;;22.80;84.00;24.30;97041.00;;;;5096901;28;20736;-73
2022/08/12 08:36:21;;;;;;;1.00;1.00;;;22.80;83.70;24.30;97034.00;;;;5096130;28;20202;-74
2022/08/12 08:39:11;;;;;;;3.27;1.33;;;22.90;84.90;25.00;97042.00;;;;5105325;28;20214;-73
2022/08/12 08:45:11;;;;;;;1.77;1.53;;;23.10;81.90;23.20;97037.00;;;;5100252;28;20209;-74
2022/08/12 08:48:03;;;;;;;9.17;2.60;;;22.70;81.20;23.30;97038.00;;;;5098279;28;20260;-72
2022/08/12 08:50:52;;;;;;;6.33;1.83;;;22.60;82.20;23.20;97047.00;;;;5101851;28;20226;-74
2022/08/12 08:53:42;;;;;;;3.03;1.40;;;22.40;82.30;23.60;97021.00;;;;5098843;28;20218;-73
2022/08/12 08:56:30;;;;;;;1.77;1.47;;;22.40;82.80;24.50;97029.00;;;;5105027;28;20206;-73
2022/08/12 08:59:21;;;;;;;2.43;1.33;;;22.60;86.50;25.00;97021.00;;;;5097552;28;20210;-74
2022/08/12 09:02:09;;;;;;;2.47;1.30;;;22.90;83.00;23.90;97042.00;;;;5102133;28;20192;-73
2022/08/12 09:04:59;;;;;;;1.50;1.40;;;23.00;82.20;23.70;97048.00;;;;5091450;28;20369;-73
2022/08/12 09:07:50;;;;;;;1.50;1.40;;;22.90;81.20;23.70;97042.00;;;;5103168;28;20195;-74
2022/08/12 09:10:40;;;;;;;1.23;1.00;;;22.80;80.80;24.20;97023.00;;;;5099661;28;20223;-74
2022/08/12 09:13:27;;;;;;;2.55;1.65;;;22.70;81.30;25.40;97027.00;;;;5098104;28;20194;-73
2022/08/12 09:16:17;;;;;;;3.57;1.60;;;23.00;81.30;26.20;97027.00;;;;5110799;28;20425;-74
2022/08/12 09:19:06;;;;;;;2.83;1.80;;;23.40;81.90;26.60;97008.00;;;;5108996;28;20215;-73
2022/08/12 09:21:58;;;;;;;1.63;1.50;;;23.90;82.70;26.70;97010.00;;;;5107553;28;20195;-73
2022/08/12 09:24:47;;;;;;;5.57;1.70;;;24.30;81.60;27.20;97017.00;;;;5103137;28;20615;-73
2022/08/12 09:27:36;;;;;;;2.50;1.50;;;24.70;80.30;27.40;97010.00;;;;5106896;27;20205;-74
2022/08/12 09:30:27;;;;;;;1.80;1.33;;;25.00;78.60;27.70;97018.00;;;;5100825;28;20222;-75
2022/08/12 09:33:16;;;;;;;2.93;1.20;;;25.20;77.70;27.80;97008.00;;;;5105994;28;20218;-74
2022/08/12 09:36:05;;;;;;;1.60;1.40;;;25.50;76.20;28.20;97013.00;;;;5106591;28;20586;-73
2022/08/12 09:38:56;;;;;;;1.77;1.53;;;25.80;75.30;27.50;97009.00;;;;5106492;28;20217;-73
2022/08/12 09:45:19;;;;;;;2.53;1.43;;;25.90;71.70;27.60;97036.00;;;;5106334;28;20203;-73
2022/08/12 09:48:07;;;;;;;2.00;1.67;;;26.00;73.60;28.80;96991.00;;;;5111579;28;20212;-72
2022/08/12 09:50:56;;;;;;;2.57;1.43;;;26.60;74.40;29.00;96996.00;;;;5103293;27;20237;-73
2022/08/12 09:53:45;;;;;;;1.60;1.40;;;26.60;73.00;28.60;96980.00;;;;5100439;28;20211;-73
2022/08/12 09:56:35;;;;;;;1.63;1.53;;;26.80;70.50;28.50;96985.00;;;;5106045;28;20209;-74
2022/08/12 09:59:25;;;;;;;2.13;1.50;;;26.90;69.20;29.30;96980.00;;;;5100688;28;20234;-74
2022/08/12 10:02:13;;;;;;;2.40;1.60;;;27.10;68.30;28.50;96993.00;;;;5097704;28;20201;-73
2022/08/12 10:05:02;;;;;;;1.60;1.30;;;27.10;66.70;28.60;96977.00;;;;5102062;28;20603;-73
2022/08/12 10:07:51;;;;;;;1.73;1.50;;;27.20;65.90;27.00;96961.00;;;;5098701;28;20505;-71
2022/08/12 10:13:47;;;;;;;3.27;1.47;;;26.50;63.10;29.20;96956.00;;;;5100336;28;20209;-72
2022/08/12 10:16:42;;;;;;;3.67;1.67;;;26.70;66.40;29.50;96949.00;;;;5103943;28;20209;-73
2022/08/12 10:19:31;;;;;;;2.37;1.43;;;27.00;65.80;28.10;96955.00;;;;5109375;28;20613;-72
2022/08/12 10:22:20;;;;;;;1.43;1.23;;;27.30;62.10;29.60;96951.00;;;;5102691;28;20201;-74
2022/08/12 10:31:26;;;;;;;1.40;1.27;;;28.00;62.40;31.20;96945.00;;;;5093455;28;20223;-73
2022/08/12 10:34:14;;;;;;;1.83;1.63;;;28.40;61.80;31.10;96944.00;;;;5107941;28;20549;-72
2022/08/12 10:37:04;;;;;;;1.87;1.50;;;28.80;60.60;30.50;96945.00;;;;5109520;28;20221;-72
2022/08/12 10:39:53;;;;;;;4.87;1.47;;;28.80;59.20;28.60;96936.00;;;;5109857;28;20347;-73
2022/08/12 10:45:59;;;;;;;2.87;1.70;;;28.50;60.10;30.90;96976.00;;;;5063294;28;20205;-74
2022/08/12 10:48:52;;;;;;;1.63;1.30;;;28.70;61.80;31.40;96911.00;;;;5096030;28;20199;-72
2022/08/12 10:51:41;;;;;;;2.93;1.50;;;29.00;60.00;32.20;96926.00;;;;5108231;28;20208;-73
2022/08/12 10:54:30;;;;;;;1.60;1.27;;;29.30;60.50;30.80;96921.00;;;;5109533;28;20207;-72
2022/08/12 10:57:20;;;;;;;1.60;1.50;;;29.40;57.80;31.60;96937.00;;;;5109134;28;20663;-73
2022/08/12 11:00:11;;;;;;;1.70;1.30;;;29.70;58.00;29.70;96905.00;;;;5108964;28;20238;-72
2022/08/12 11:02:59;;;;;;;1.50;1.40;;;29.60;56.10;31.40;96912.00;;;;5108422;28;20203;-73
2022/08/12 11:05:49;;;;;;;1.53;1.20;;;29.50;56.10;31.20;96915.00;;;;5109906;28;20687;-73
2022/08/12 11:08:40;;;;;;;1.50;1.40;;;29.60;57.60;30.50;96940.00;;;;5109156;28;20199;-72
2022/08/12 11:11:31;;;;;;;2.20;1.40;;;29.20;56.50;32.10;96925.00;;;;5097882;28;20213;-73
2022/08/12 11:14:27;;;;;;;1.73;1.40;;;29.40;55.90;31.20;96923.00;;;;5102233;28;20594;-74
2022/08/12 11:17:16;;;;;;;1.93;1.50;;;29.30;55.40;31.90;96918.00;;;;5108353;28;20206;-72
2022/08/12 11:20:06;;;;;;;4.30;2.60;;;29.60;54.50;32.00;96972.00;;;;5098320;28;20662;-73
2022/08/12 11:22:57;;;;;;;2.50;1.70;;;29.70;55.10;31.60;96977.00;;;;5094977;28;20559;-72
2022/08/12 11:25:47;;;;;;;1.57;1.47;;;29.60;54.90;30.90;96898.00;;;;5109971;28;20210;-72
2022/08/12 11:28:37;;;;;;;1.60;1.37;;;29.70;53.70;30.60;96897.00;;;;5103271;27;20199;-72
2022/08/12 11:31:26;;;;;;;1.90;1.53;;;29.60;53.70;32.40;96910.00;;;;5112586;22;20246;-69
2022/08/12 11:34:16;;;;;;;2.25;2.05;;;29.80;54.20;33.20;96914.00;;;;5084311;28;20212;-71
2022/08/12 11:37:06;;;;;;;1.75;1.38;;;30.20;53.70;34.10;96902.00;;;;5085966;28;20239;-70
2022/08/12 11:39:56;;;;;;;1.58;1.20;;;30.80;53.20;32.40;96967.00;;;;5088368;28;20231;-70
2022/08/12 11:42:45;;;;;;;2.42;1.80;;;30.80;51.20;31.60;96975.00;;;;5081099;28;20201;-71
2022/08/12 11:45:33;;;;;;;1.55;1.42;;;30.30;51.00;30.80;96969.00;;;;5074806;28;20287;-71
2022/08/12 11:48:22;;;;;;;2.45;1.55;;;29.90;51.70;30.60;96880.00;;;;5087484;28;20195;-70
2022/08/12 11:51:11;;;;;;;3.45;1.60;;;29.50;52.50;29.00;96958.00;;;;5086962;28;20256;-70
2022/08/12 11:54:00;;;;;;;1.27;1.17;;;29.00;52.20;29.70;96938.00;;;;5087117;28;20205;-71
2022/08/12 11:56:50;;;;;;;2.35;1.73;;;28.80;53.40;30.10;96950.00;;;;5072728;28;20402;-70
2022/08/12 11:59:39;;;;;;;1.60;1.00;;;28.60;54.80;29.40;96978.00;;;;5086805;28;20214;-70
2022/08/12 12:02:48;;;;;;;2.53;1.67;;;28.30;55.00;27.80;96980.00;;;;5089357;28;20281;-70
2022/08/12 12:05:37;;;;;;;3.67;1.40;;;27.60;55.50;27.30;96979.00;;;;5080974;28;20374;-69
2022/08/12 12:08:28;;;;;;;2.40;1.70;;;27.00;56.30;27.00;96985.00;;;;5076708;28;20583;-69
2022/08/12 12:11:18;;;;;;;1.50;1.40;;;26.50;57.00;26.00;96984.00;;;;5086384;28;20221;-69
2022/08/12 12:14:08;;;;;;;2.17;1.23;;;26.00;58.10;26.10;96989.00;;;;5085837;28;20401;-69
2022/08/12 12:16:57;;;;;;;1.40;1.30;;;25.60;58.50;25.80;96987.00;;;;5094889;28;20277;-69
2022/08/12 12:19:46;;;;;;;1.57;1.30;;;25.30;59.30;25.80;97001.00;;;;5078269;28;20603;-70
2022/08/12 12:22:35;;;;;;;1.33;1.03;;;25.00;59.70;26.10;96998.00;;;;5086417;28;20207;-70
2022/08/12 12:25:24;;;;;;;1.47;1.33;;;24.80;60.30;25.90;96985.00;;;;5089264;28;20211;-69
2022/08/12 12:28:13;;;;;;;1.10;1.00;;;24.70;61.00;26.00;96982.00;;;;5082035;28;20192;-70
2022/08/12 12:31:04;;;;;;;1.20;1.10;;;24.60;61.00;26.40;96973.00;;;;5086236;28;20231;-70
2022/08/12 12:33:52;;;;;;;2.50;1.60;;;24.70;62.20;28.30;96979.00;;;;5086832;28;20203;-70
2022/08/12 12:36:41;;;;;;;1.60;1.50;;;25.10;64.20;27.00;96979.00;;;;5092294;28;20406;-70
2022/08/12 12:39:30;;;;;;;1.63;1.50;;;25.30;61.10;25.90;96973.00;;;;5081129;28;20944;-71
2022/08/12 12:42:19;;;;;;;1.33;1.23;;;25.20;59.50;26.40;96976.00;;;;5077030;28;20203;-70
2022/08/12 12:45:09;;;;;;;1.27;1.17;;;25.10;60.20;26.20;96973.00;;;;5088454;28;20196;-69
2022/08/12 12:48:01;;;;;;;1.87;1.40;;;24.90;61.10;25.90;96977.00;;;;5087939;28;20211;-70
2022/08/12 12:53:56;;;;;;;2.53;1.50;;;24.60;61.50;25.80;96992.00;;;;5079193;28;20869;-69
2022/08/12 12:56:48;;;;;;;1.50;1.40;;;24.60;62.50;26.00;96997.00;;;;5090178;28;20409;-69
2022/08/12 13:00:13;;;;;;;1.20;1.10;;;24.50;62.50;25.20;96989.00;;;;5090589;28;20590;-70
2022/08/12 13:02:52;;;;;;;1.23;1.13;;;24.40;62.10;24.90;96976.00;;;;5093173;28;20200;-68
2022/08/12 13:05:42;;;;;;;2.77;1.60;;;24.10;63.00;25.30;96979.00;;;;5085277;28;20204;-69
2022/08/12 13:08:32;;;;;;;3.77;1.30;;;24.00;64.40;25.50;96979.00;;;;5079652;28;20187;-69
2022/08/12 13:11:22;;;;;;;1.97;1.30;;;24.00;64.60;25.40;96981.00;;;;5090156;28;20211;-68
2022/08/12 13:14:12;;;;;;;2.80;1.30;;;24.00;65.30;25.70;96972.00;;;;5089920;28;20701;-68
2022/08/12 13:17:01;;;;;;;1.57;1.47;;;24.00;66.40;25.60;96972.00;;;;5098258;28;20594;-68
2022/08/12 13:19:50;;;;;;;1.87;1.27;;;24.00;65.40;26.10;96937.00;;;;5076496;28;20219;-68
2022/08/12 13:22:40;;;;;;;1.73;1.43;;;24.10;66.00;26.90;96917.00;;;;5086933;28;20202;-70
2022/08/12 13:25:30;;;;;;;1.50;1.40;;;24.60;67.60;27.40;96919.00;;;;5091376;28;20667;-69
2022/08/12 13:28:23;;;;;;;2.30;1.80;;;25.10;65.90;29.70;96920.00;;;;5090533;28;20210;-69
2022/08/12 13:31:15;;;;;;;2.00;1.33;;;25.90;67.10;27.80;96960.00;;;;5088742;28;20231;-68
2022/08/12 13:34:04;;;;;;;3.53;0.97;;;26.10;64.60;26.60;96974.00;;;;5077961;28;20209;-68
2022/08/12 13:36:55;;;;;;;2.53;2.03;;;26.00;62.90;26.60;96962.00;;;;5090073;28;20744;-69
2022/08/12 13:39:45;;;;;;;1.30;1.20;;;25.60;64.30;27.30;96956.00;;;;5091069;28;20222;-68
2022/08/12 13:42:34;;;;;;;1.30;1.10;;;25.60;65.30;27.30;96969.00;;;;5088149;28;20209;-69
2022/08/12 13:45:23;;;;;;;4.87;1.60;;;25.60;65.50;26.80;96974.00;;;;5091047;28;20204;-69
2022/08/12 13:48:12;;;;;;;1.00;0.90;;;25.50;66.10;26.60;96985.00;;;;5090081;28;20590;-69
2022/08/12 13:51:00;;;;;;;2.80;1.20;;;25.30;66.20;26.60;97006.00;;;;5088853;28;20236;-68
2022/08/12 13:53:50;;;;;;;4.60;2.03;;;25.20;67.20;26.10;97027.00;;;;5090834;28;20201;-69
2022/08/12 13:56:40;;;;;;;3.87;1.80;;;24.90;72.70;25.10;97025.00;;;;5090670;28;20235;-68
2022/08/12 13:59:29;;;;;;;3.30;1.87;;;24.70;79.40;23.50;97022.00;;;;5088208;28;20196;-68
2022/08/12 14:02:19;;;;;;;3.37;1.77;;;23.90;88.80;22.70;97032.00;;;;5089051;28;20214;-68
2022/08/12 14:05:09;;;;;;;2.40;1.90;;;23.10;90.70;21.90;97022.00;;;;5089218;28;20195;-68
2022/08/12 14:08:01;;;;;;;4.80;2.00;;;22.30;92.60;20.60;97019.00;;;;5089742;28;20211;-68
2022/08/12 14:10:52;;;;;;;2.57;1.77;;;21.50;96.60;20.10;97020.00;;;;5087850;28;20238;-69
2022/08/12 14:13:42;;;;;;;2.17;1.83;;;20.60;99.40;20.00;97024.00;;;;5083794;28;20219;-69
2022/08/12 14:16:32;;;;;;;4.53;2.10;;;20.00;99.90;19.50;97031.00;;;;5080592;28;20223;-68
2022/08/12 14:19:21;;;;;;;3.10;1.90;;;19.70;99.90;19.10;97022.00;;;;5084546;28;20195;-68
2022/08/12 14:22:12;;;;;;;2.50;2.30;;;19.10;99.90;18.90;97018.00;;;;5086093;28;20210;-70
2022/08/12 14:25:01;;;;;;;2.47;2.13;;;18.70;99.90;19.30;97016.00;;;;5090189;28;20210;-69
2022/08/12 14:27:51;;;;;;;9.67;3.50;;;18.60;99.90;19.40;97013.00;;;;5089741;28;20206;-68
2022/08/12 14:30:50;;;;;;;2.27;2.07;;;18.50;99.90;19.40;97008.00;;;;5084070;28;20749;-69
2022/08/12 14:33:41;;;;;;;2.63;2.20;;;18.50;99.90;18.80;97007.00;;;;5088734;28;20693;-71